Time;durP1;ratioP1;P1;durP2;ratioP2;P2;SDS_P1;SDS_P2;PMS_P1;PMS_P2;Temp;Humidity;BMP_temperature;BMP_pressure;BME280_temperature;BME280_humidity;BME280_pressure;Samples;Min_cycle;Max_cycle;Signal;HPM_P1;HPM_P2
2022/03/10 00:00:07;;;;;;;28.27;16.40;;;;;;;-5.74;100.00;101438.72;1734998;81;21113;-79
2022/03/10 00:02:36;;;;;;;27.22;16.85;;;;;;;-5.77;100.00;101444.63;1731794;82;21018;-78
2022/03/10 00:05:05;;;;;;;30.32;16.80;;;;;;;-5.81;100.00;101445.46;1735069;82;21567;-80
2022/03/10 00:07:33;;;;;;;31.60;17.57;;;;;;;-5.87;100.00;101444.13;1734918;81;21041;-84
2022/03/10 00:09:59;;;;;;;29.35;17.25;;;;;;;-5.93;100.00;101452.98;1735031;81;21267;-84
2022/03/10 00:12:27;;;;;;;25.77;16.30;;;;;;;-5.98;100.00;101447.03;1741630;81;21636;-83
2022/03/10 00:14:54;;;;;;;28.98;17.48;;;;;;;-6.05;100.00;101446.16;1721588;82;21267;-83
2022/03/10 00:17:21;;;;;;;26.75;16.32;;;;;;;-6.11;100.00;101444.43;1750961;82;21244;-84
2022/03/10 00:19:57;;;;;;;27.37;16.73;;;;;;;-6.19;100.00;101439.72;1750643;82;21127;-80
2022/03/10 00:22:46;;;;;;;25.37;15.45;;;;;;;-6.26;100.00;101446.85;1749095;80;21080;-79
2022/03/10 00:25:14;;;;;;;24.67;15.32;;;;;;;-6.34;100.00;101446.80;1714293;82;21519;-78
2022/03/10 00:27:43;;;;;;;24.52;16.10;;;;;;;-6.41;100.00;101451.40;1752589;79;21603;-81
2022/03/10 00:30:10;;;;;;;30.57;18.35;;;;;;;-6.46;100.00;101443.75;1750636;80;21206;-78
2022/03/10 00:32:45;;;;;;;26.97;15.80;;;;;;;-6.51;100.00;101438.64;1750832;80;21574;-78
2022/03/10 00:35:18;;;;;;;29.37;16.65;;;;;;;-6.57;100.00;101446.16;1750203;80;21059;-83
2022/03/10 00:37:47;;;;;;;24.32;15.03;;;;;;;-6.64;100.00;101451.17;1750477;81;21182;-79
2022/03/10 00:40:19;;;;;;;29.25;16.37;;;;;;;-6.71;100.00;101444.79;1750470;80;21033;-78
2022/03/10 00:42:48;;;;;;;27.45;14.95;;;;;;;-6.77;100.00;101444.70;1721330;82;21044;-78
2022/03/10 00:45:17;;;;;;;27.37;15.20;;;;;;;-6.83;100.00;101449.72;1750568;82;21010;-79
2022/03/10 00:47:45;;;;;;;22.35;13.70;;;;;;;-6.89;100.00;101443.33;1750549;80;20973;-79
2022/03/10 00:50:13;;;;;;;26.85;14.98;;;;;;;-6.95;100.00;101447.91;1750854;82;21494;-79
2022/03/10 00:52:43;;;;;;;23.80;14.70;;;;;;;-7.00;100.00;101444.06;1750932;81;21044;-79
2022/03/10 00:55:12;;;;;;;23.27;12.88;;;;;;;-7.03;100.00;101444.05;1750836;82;26656;-81
2022/03/10 00:57:40;;;;;;;24.37;11.95;;;;;;;-7.07;100.00;101453.69;1750735;80;21076;-79
2022/03/10 01:00:09;;;;;;;21.23;12.35;;;;;;;-7.11;100.00;101458.70;1751016;80;21052;-78
2022/03/10 01:02:37;;;;;;;22.67;13.08;;;;;;;-7.17;100.00;101454.01;1746149;81;21506;-80
2022/03/10 01:05:08;;;;;;;23.98;13.32;;;;;;;-7.22;100.00;101456.05;1754177;80;21052;-79
2022/03/10 01:07:35;;;;;;;21.95;13.28;;;;;;;-7.26;100.00;101455.59;1750569;80;21282;-79
2022/03/10 01:10:06;;;;;;;23.75;13.32;;;;;;;-7.27;100.00;101461.48;1781588;80;21026;-78
2022/03/10 01:12:36;;;;;;;24.23;14.05;;;;;;;-7.32;100.00;101459.73;1769973;80;21117;-80
2022/03/10 01:15:06;;;;;;;22.82;12.20;;;;;;;-7.34;100.00;101466.47;1745882;80;21023;-79
2022/03/10 01:17:33;;;;;;;25.82;14.03;;;;;;;-7.36;100.00;101469.79;1746092;80;21070;-84
2022/03/10 01:20:01;;;;;;;23.40;12.55;;;;;;;-7.39;100.00;101469.77;1746087;81;21212;-83
2022/03/10 01:22:27;;;;;;;24.40;13.03;;;;;;;-7.40;100.00;101470.16;1730980;81;21133;-82
2022/03/10 01:24:54;;;;;;;25.27;12.35;;;;;;;-7.41;100.00;101472.26;1746068;81;21089;-84
2022/03/10 01:27:22;;;;;;;21.87;12.03;;;;;;;-7.40;100.00;101466.38;1745804;82;21039;-82
2022/03/10 01:29:49;;;;;;;17.30;10.20;;;;;;;-7.38;100.00;101472.31;1745732;81;21066;-84
2022/03/10 01:32:15;;;;;;;22.80;12.43;;;;;;;-7.39;100.00;101476.94;1745919;81;21172;-85
2022/03/10 01:34:42;;;;;;;21.23;11.18;;;;;;;-7.36;100.00;101476.98;1746139;80;21655;-85
2022/03/10 01:37:09;;;;;;;19.75;11.30;;;;;;;-7.35;100.00;101467.70;1746038;80;21436;-84
2022/03/10 01:39:36;;;;;;;20.05;10.78;;;;;;;-7.33;100.00;101478.27;1745932;80;21026;-84
2022/03/10 01:42:06;;;;;;;18.92;10.98;;;;;;;-7.31;100.00;101485.91;1745905;80;21085;-83
2022/03/10 01:44:34;;;;;;;20.05;11.60;;;;;;;-7.31;100.00;101476.62;1744247;82;21240;-81
2022/03/10 01:47:02;;;;;;;20.05;10.93;;;;;;;-7.28;100.00;101483.39;1745756;82;20999;-79
2022/03/10 01:49:29;;;;;;;19.25;9.80;;;;;;;-7.28;100.00;101484.66;1745976;81;21594;-79
2022/03/10 01:51:57;;;;;;;15.93;9.78;;;;;;;-7.27;100.00;101489.33;1745997;80;21073;-81
2022/03/10 01:54:24;;;;;;;21.80;10.18;;;;;;;-7.31;100.00;101496.03;1745832;80;21561;-79
2022/03/10 01:56:51;;;;;;;18.42;9.63;;;;;;;-7.37;100.00;101495.53;1746241;80;21215;-78
2022/03/10 01:59:19;;;;;;;16.70;8.88;;;;;;;-7.41;100.00;101491.67;1745650;80;20936;-78
2022/03/10 02:01:47;;;;;;;19.20;9.20;;;;;;;-7.48;100.00;101505.91;1730210;82;20987;-79
2022/03/10 02:04:14;;;;;;;16.27;8.88;;;;;;;-7.54;100.00;101500.77;1731015;80;21070;-79
2022/03/10 02:06:43;;;;;;;18.40;8.75;;;;;;;-7.63;100.00;101509.92;1745987;80;21030;-79
2022/03/10 02:12:00;;;;;;;16.55;8.75;;;;;;;-7.74;100.00;101504.28;1731398;81;21045;-78
2022/03/10 02:17:21;;;;;;;17.17;8.53;;;;;;;-7.83;100.00;101503.73;1789752;80;21535;-79
2022/03/10 02:19:57;;;;;;;20.48;8.45;;;;;;;-7.89;100.00;101503.22;1789876;80;21040;-78
2022/03/10 02:22:26;;;;;;;14.98;8.83;;;;;;;-7.95;100.00;101502.70;1789389;79;21315;-80
2022/03/10 02:24:55;;;;;;;15.93;8.25;;;;;;;-7.98;100.00;101500.55;1790009;80;21081;-79
2022/03/10 02:27:26;;;;;;;15.50;8.05;;;;;;;-8.01;100.00;101506.41;1790260;80;21033;-79
2022/03/10 02:30:00;;;;;;;15.78;8.98;;;;;;;-8.05;100.00;101505.91;1789287;80;21006;-79
2022/03/10 02:32:28;;;;;;;13.72;7.90;;;;;;;-8.09;100.00;101509.23;1761120;80;21041;-84
2022/03/10 02:34:55;;;;;;;12.90;7.05;;;;;;;-8.14;100.00;101507.89;1789993;80;21898;-83
2022/03/10 02:37:22;;;;;;;15.95;8.88;;;;;;;-8.16;100.00;101504.48;1789932;80;21088;-84
2022/03/10 02:39:49;;;;;;;16.70;8.53;;;;;;;-8.19;100.00;101519.61;1784438;78;21164;-84
2022/03/10 02:42:16;;;;;;;14.07;8.13;;;;;;;-8.22;100.00;101514.49;1774501;78;21029;-80
2022/03/10 02:44:48;;;;;;;15.38;8.50;;;;;;;-8.22;100.00;101514.92;1779330;78;21085;-80
2022/03/10 02:47:18;;;;;;;14.35;8.40;;;;;;;-8.24;100.00;101521.19;1761134;80;21221;-80
2022/03/10 02:49:46;;;;;;;14.78;8.35;;;;;;;-8.26;100.00;101521.59;1789769;80;21551;-79
2022/03/10 02:52:13;;;;;;;15.23;8.35;;;;;;;-8.29;100.00;101524.06;1784281;78;21025;-81
2022/03/10 02:57:14;;;;;;;14.47;7.87;;;;;;;-8.35;100.00;101527.33;1789646;80;21546;-81
2022/03/10 02:59:42;;;;;;;14.45;7.65;;;;;;;-8.37;100.00;101530.23;1789054;78;21204;-80
2022/03/10 03:02:10;;;;;;;15.28;8.48;;;;;;;-8.40;100.00;101531.03;1789273;80;21041;-80
2022/03/10 03:04:37;;;;;;;15.93;8.10;;;;;;;-8.44;100.00;101524.23;1790269;80;22018;-80
2022/03/10 03:07:04;;;;;;;15.10;7.75;;;;;;;-8.46;100.00;101531.36;1790296;80;21071;-79
2022/03/10 03:09:33;;;;;;;14.40;7.92;;;;;;;-8.48;100.00;101523.75;1774428;78;21452;-83
2022/03/10 03:12:00;;;;;;;16.82;7.97;;;;;;;-8.51;100.00;101527.51;1762514;80;21232;-85
2022/03/10 03:14:28;;;;;;;12.47;7.15;;;;;;;-8.52;100.00;101535.04;1762622;80;21574;-79
2022/03/10 03:16:58;;;;;;;14.20;7.37;;;;;;;-8.57;100.00;101537.08;1752361;80;21065;-82
2022/03/10 03:19:26;;;;;;;15.10;7.08;;;;;;;-8.60;100.00;101540.80;1756803;80;21108;-79
2022/03/10 03:21:54;;;;;;;14.70;8.00;;;;;;;-8.64;100.00;101545.37;1754279;78;21519;-80
2022/03/10 03:24:22;;;;;;;13.83;7.37;;;;;;;-8.69;100.00;101543.15;1746212;80;21228;-80
2022/03/10 03:26:50;;;;;;;12.45;6.70;;;;;;;-8.72;100.00;101543.95;1775592;79;21443;-80
2022/03/10 03:29:17;;;;;;;23.18;9.80;;;;;;;-8.75;100.00;101545.56;1775645;79;20986;-81
2022/03/10 03:31:44;;;;;;;12.98;6.80;;;;;;;-8.78;100.00;101551.84;1775518;80;21617;-79
2022/03/10 03:34:12;;;;;;;10.65;6.90;;;;;;;-8.80;100.00;101555.56;1764871;80;21763;-79
2022/03/10 03:36:43;;;;;;;11.57;6.87;;;;;;;-8.82;100.00;101546.27;1744928;80;21233;-79
2022/03/10 03:39:11;;;;;;;12.28;7.15;;;;;;;-8.86;100.00;101553.36;1753945;80;21097;-80
2022/03/10 03:41:38;;;;;;;11.97;7.17;;;;;;;-8.91;100.00;101559.14;1774138;79;21034;-79
2022/03/10 03:44:09;;;;;;;19.42;8.85;;;;;;;-8.92;100.00;101554.08;1775430;80;21550;-79
2022/03/10 03:46:37;;;;;;;14.80;8.05;;;;;;;-8.94;100.00;101562.89;1775401;79;21005;-80
2022/03/10 03:49:05;;;;;;;12.13;6.97;;;;;;;-8.96;100.00;101556.08;1775496;79;21243;-79
2022/03/10 03:51:31;;;;;;;13.58;7.35;;;;;;;-8.99;100.00;101558.56;1775617;79;21064;-80
2022/03/10 03:53:58;;;;;;;14.73;7.35;;;;;;;-9.01;100.00;101553.88;1776063;80;21084;-79
2022/03/10 03:56:25;;;;;;;11.00;5.30;;;;;;;-9.02;100.00;101568.58;1775747;79;21053;-79
2022/03/10 03:58:52;;;;;;;13.68;7.15;;;;;;;-9.06;100.00;101563.88;1743666;80;21056;-80
2022/03/10 04:01:19;;;;;;;13.32;7.45;;;;;;;-9.09;100.00;101568.45;1775565;79;21930;-79
2022/03/10 04:03:46;;;;;;;12.15;7.05;;;;;;;-9.13;100.00;101569.62;1743309;80;21124;-79
2022/03/10 04:06:13;;;;;;;13.90;6.83;;;;;;;-9.15;100.00;101568.73;1775441;80;21052;-79
2022/03/10 04:08:39;;;;;;;16.48;6.45;;;;;;;-9.17;100.00;101572.48;1750730;79;21518;-79
2022/03/10 04:11:07;;;;;;;12.63;6.55;;;;;;;-9.21;100.00;101575.75;1745230;80;21618;-79
2022/03/10 04:13:34;;;;;;;13.75;6.35;;;;;;;-9.25;100.00;101576.52;1747352;80;22084;-80
2022/03/10 04:16:01;;;;;;;11.48;6.45;;;;;;;-9.28;100.00;101577.30;1753130;80;21067;-79
2022/03/10 04:18:28;;;;;;;13.95;7.62;;;;;;;-9.29;100.00;101582.33;1753119;81;21088;-79
2022/03/10 04:20:56;;;;;;;13.48;7.62;;;;;;;-9.33;100.00;101579.28;1753105;80;21088;-79
2022/03/10 04:23:24;;;;;;;14.38;7.72;;;;;;;-9.35;100.00;101580.52;1753169;81;21064;-85
2022/03/10 04:25:51;;;;;;;14.03;7.60;;;;;;;-9.37;100.00;101586.77;1753151;81;21357;-86
2022/03/10 04:28:17;;;;;;;15.68;7.70;;;;;;;-9.37;100.00;101582.14;1753356;81;21159;-83
2022/03/10 04:30:45;;;;;;;10.53;4.62;;;;;;;-9.37;100.00;101582.14;1753202;81;21657;-83
2022/03/10 04:33:12;;;;;;;13.70;5.90;;;;;;;-9.38;100.00;101588.00;1753209;80;21028;-83
2022/03/10 04:35:39;;;;;;;17.48;6.15;;;;;;;-9.42;100.00;101590.86;1753185;81;21527;-86
2022/03/10 04:38:07;;;;;;;14.78;7.40;;;;;;;-9.44;100.00;101591.65;1765466;79;21103;-83
2022/03/10 04:40:34;;;;;;;15.88;8.05;;;;;;;-9.45;100.00;101588.68;1784014;80;21053;-84
2022/03/10 04:43:01;;;;;;;14.07;7.80;;;;;;;-9.47;100.00;101587.78;1784098;79;21091;-84
2022/03/10 04:45:28;;;;;;;12.88;6.08;;;;;;;-9.45;100.00;101592.47;1783765;80;21064;-83
2022/03/10 04:47:56;;;;;;;15.45;7.17;;;;;;;-9.47;100.00;101599.13;1784046;79;21038;-82
2022/03/10 04:50:22;;;;;;;16.50;6.87;;;;;;;-9.47;100.00;101590.31;1784193;80;21185;-81
2022/03/10 04:52:51;;;;;;;16.37;7.72;;;;;;;-9.48;100.00;101599.95;1783702;80;21414;-80
2022/03/10 04:55:18;;;;;;;13.28;7.72;;;;;;;-9.46;100.00;101597.06;1783989;80;21068;-80
2022/03/10 04:57:45;;;;;;;14.28;7.12;;;;;;;-9.44;100.00;101602.58;1777091;79;21573;-81
2022/03/10 05:00:14;;;;;;;18.77;7.85;;;;;;;-9.42;100.00;101602.21;1772812;79;21663;-80
2022/03/10 05:02:41;;;;;;;15.43;7.50;;;;;;;-9.38;100.00;101610.70;1783425;79;21123;-80
2022/03/10 05:05:10;;;;;;;12.53;6.37;;;;;;;-9.32;100.00;101615.88;1782563;79;21345;-81
2022/03/10 05:07:38;;;;;;;15.57;7.07;;;;;;;-9.31;100.00;101613.81;1775885;79;21131;-84
2022/03/10 05:10:08;;;;;;;17.98;7.00;;;;;;;-9.29;100.00;101608.40;1781662;79;21569;-81
2022/03/10 05:12:46;;;;;;;14.93;7.35;;;;;;;-9.26;100.00;101616.44;1781663;79;21041;-81
2022/03/10 05:15:18;;;;;;;11.43;5.08;;;;;;;-9.22;100.00;101610.23;1761851;79;21599;-80
2022/03/10 05:17:46;;;;;;;15.10;7.55;;;;;;;-9.21;100.00;101611.95;1727461;80;21274;-79
2022/03/10 05:20:26;;;;;;;15.28;7.37;;;;;;;-9.22;100.00;101624.12;1719167;81;21063;-80
2022/03/10 05:22:56;;;;;;;11.48;6.62;;;;;;;-9.20;100.00;101616.57;1734949;81;21481;-86
2022/03/10 05:25:26;;;;;;;12.80;5.12;;;;;;;-9.21;100.00;101615.73;1725091;82;21090;-85
2022/03/10 05:27:53;;;;;;;14.80;6.43;;;;;;;-9.21;100.00;101620.78;1731050;81;21302;-80
2022/03/10 05:30:20;;;;;;;13.10;7.08;;;;;;;-9.21;100.00;101616.13;1735728;81;21958;-80
2022/03/10 05:32:48;;;;;;;11.10;6.28;;;;;;;-9.22;100.00;101626.64;1736787;81;21050;-80
2022/03/10 05:35:17;;;;;;;12.18;6.62;;;;;;;-9.20;100.00;101633.84;1736872;81;21042;-79
2022/03/10 05:37:46;;;;;;;14.00;7.50;;;;;;;-9.15;100.00;101645.30;1736861;81;21492;-80
2022/03/10 05:40:18;;;;;;;12.20;6.87;;;;;;;-9.10;100.00;101639.94;1738835;81;21288;-80
2022/03/10 05:42:46;;;;;;;14.28;7.05;;;;;;;-9.05;100.00;101631.21;1733161;81;21730;-82
2022/03/10 05:45:20;;;;;;;13.60;6.85;;;;;;;-9.03;100.00;101635.89;1728578;80;21136;-80
2022/03/10 05:47:44;;;;;;;10.68;5.10;;;;;;;-8.99;100.00;101630.08;1732735;82;21634;-81
2022/03/10 05:50:11;;;;;;;9.15;5.12;;;;;;;-8.95;100.00;101634.39;1736954;81;21046;-84
2022/03/10 05:52:38;;;;;;;16.30;7.12;;;;;;;-8.94;100.00;101634.84;1737015;81;21079;-79
2022/03/10 05:55:06;;;;;;;13.05;7.08;;;;;;;-8.92;100.00;101638.22;1737040;81;21019;-79
2022/03/10 05:57:33;;;;;;;13.38;7.15;;;;;;;-8.86;100.00;101636.25;1736972;81;21098;-86
2022/03/10 06:00:00;;;;;;;16.37;6.70;;;;;;;-8.78;100.00;101626.33;1732822;81;21082;-87
2022/03/10 06:02:27;;;;;;;13.95;6.00;;;;;;;-8.73;100.00;101640.73;1729579;81;21074;-87
2022/03/10 06:04:58;;;;;;;13.60;6.22;;;;;;;-8.73;100.00;101636.94;1724020;82;21857;-85
2022/03/10 06:07:25;;;;;;;13.15;7.03;;;;;;;-8.74;100.00;101635.66;1733575;82;21622;-79
2022/03/10 06:09:52;;;;;;;13.68;6.35;;;;;;;-8.77;100.00;101643.19;1737306;81;21118;-83
2022/03/10 06:12:26;;;;;;;14.73;6.00;;;;;;;-8.78;100.00;101652.84;1737300;81;21576;-79
2022/03/10 06:15:08;;;;;;;14.35;5.33;;;;;;;-8.82;100.00;101654.84;1730976;81;21642;-79
2022/03/10 06:17:35;;;;;;;12.13;7.03;;;;;;;-8.85;100.00;101648.05;1739081;81;21291;-80
2022/03/10 06:20:06;;;;;;;11.60;5.45;;;;;;;-8.84;100.00;101641.32;1788819;78;21048;-83
2022/03/10 06:22:36;;;;;;;10.50;6.30;;;;;;;-8.79;100.00;101643.13;1784836;79;21126;-80
2022/03/10 06:25:06;;;;;;;14.25;6.20;;;;;;;-8.69;100.00;101655.53;1784512;79;21506;-80
2022/03/10 06:27:35;;;;;;;12.33;6.15;;;;;;;-8.62;100.00;101652.73;1764116;78;21081;-80
2022/03/10 06:30:05;;;;;;;12.30;6.60;;;;;;;-8.57;100.00;101653.28;1775944;78;21209;-82
2022/03/10 06:32:35;;;;;;;7.75;4.25;;;;;;;-8.51;100.00;101647.90;1790453;79;21475;-80
2022/03/10 06:35:06;;;;;;;11.35;5.90;;;;;;;-8.46;100.00;101658.94;1784541;78;21065;-81
2022/03/10 06:37:33;;;;;;;9.43;4.80;;;;;;;-8.49;100.00;101657.63;1774794;78;21022;-81
2022/03/10 06:40:02;;;;;;;10.70;6.22;;;;;;;-8.51;100.00;101651.30;1770508;79;21093;-83
2022/03/10 06:42:34;;;;;;;13.15;6.72;;;;;;;-8.49;100.00;101657.63;1752564;80;21222;-83
2022/03/10 06:45:02;;;;;;;11.05;6.03;;;;;;;-8.45;100.00;101658.12;1782942;79;21025;-82
2022/03/10 06:47:33;;;;;;;13.93;7.07;;;;;;;-8.41;100.00;101656.92;1757849;80;21092;-80
2022/03/10 06:50:02;;;;;;;12.50;6.45;;;;;;;-8.35;100.00;101658.72;1749105;81;21493;-81
2022/03/10 06:52:35;;;;;;;13.00;5.80;;;;;;;-8.30;100.00;101663.48;1749522;81;21026;-86
2022/03/10 06:55:04;;;;;;;9.10;4.92;;;;;;;-8.22;100.00;101656.02;1748628;80;21260;-81
2022/03/10 06:57:33;;;;;;;12.13;6.50;;;;;;;-8.18;100.00;101651.88;1752037;81;20996;-82
2022/03/10 07:00:01;;;;;;;13.90;6.80;;;;;;;-8.16;100.00;101654.03;1752172;81;21031;-81
2022/03/10 07:02:31;;;;;;;13.22;6.37;;;;;;;-8.07;100.00;101642.83;1744889;80;21007;-82
2022/03/10 07:04:58;;;;;;;10.40;5.33;;;;;;;-7.96;100.00;101646.81;1735491;81;20999;-81
2022/03/10 07:07:24;;;;;;;13.30;5.92;;;;;;;-7.88;100.00;101646.94;1722422;83;22209;-81
2022/03/10 07:09:51;;;;;;;13.60;6.47;;;;;;;-7.88;100.00;101647.80;1747641;81;21028;-81
2022/03/10 07:12:18;;;;;;;11.85;6.08;;;;;;;-7.89;100.00;101646.09;1747715;80;21542;-80
2022/03/10 07:14:46;;;;;;;16.77;7.33;;;;;;;-7.85;100.00;101641.94;1752158;80;21005;-81
2022/03/10 07:17:15;;;;;;;13.65;6.70;;;;;;;-7.79;100.00;101643.30;1733829;80;24873;-84
2022/03/10 07:19:42;;;;;;;14.93;7.53;;;;;;;-7.68;100.00;101636.77;1727433;81;21241;-81
2022/03/10 07:22:09;;;;;;;16.32;8.48;;;;;;;-7.55;100.00;101639.48;1712803;82;21086;-81
2022/03/10 07:24:36;;;;;;;10.90;6.37;;;;;;;-7.54;100.00;101638.27;1725358;81;21126;-81
2022/03/10 07:27:04;;;;;;;13.28;6.80;;;;;;;-7.55;100.00;101630.63;1736438;80;21130;-80
2022/03/10 07:29:31;;;;;;;13.28;7.03;;;;;;;-7.54;100.00;101642.06;1766469;78;21118;-81
2022/03/10 07:31:58;;;;;;;12.80;6.10;;;;;;;-7.43;100.00;101637.16;1765044;80;21432;-81
2022/03/10 07:34:25;;;;;;;9.28;5.10;;;;;;;-7.34;100.00;101644.03;1735307;81;21301;-80
2022/03/10 07:36:53;;;;;;;15.18;7.53;;;;;;;-7.36;100.00;101631.37;1760843;80;21453;-81
2022/03/10 07:39:20;;;;;;;14.55;5.72;;;;;;;-7.33;100.00;101626.77;1759688;79;21067;-81
2022/03/10 07:41:47;;;;;;;16.27;6.78;;;;;;;-7.27;100.00;101624.31;1755374;80;21011;-80
2022/03/10 07:44:14;;;;;;;12.10;6.97;;;;;;;-7.17;100.00;101631.66;1761598;80;21208;-80
2022/03/10 07:46:42;;;;;;;17.17;7.15;;;;;;;-7.14;100.00;101628.75;1743076;80;21654;-82
2022/03/10 07:49:10;;;;;;;13.60;6.95;;;;;;;-7.13;100.00;101638.02;1748766;80;21018;-81
2022/03/10 07:51:40;;;;;;;11.12;5.97;;;;;;;-7.15;100.00;101626.17;1747942;80;21156;-81
2022/03/10 07:54:08;;;;;;;7.10;4.20;;;;;;;-7.21;100.00;101626.92;1764810;79;21041;-88
2022/03/10 07:56:35;;;;;;;7.85;4.70;;;;;;;-7.27;100.00;101631.91;1773737;79;21850;-81
2022/03/10 07:59:02;;;;;;;14.30;5.58;;;;;;;-7.23;100.00;101622.67;1773862;79;21187;-82
2022/03/10 08:01:31;;;;;;;14.85;7.22;;;;;;;-7.16;100.00;101628.27;1773531;79;21076;-81
2022/03/10 08:03:58;;;;;;;15.63;6.37;;;;;;;-7.07;100.00;101618.27;1768841;77;21167;-84
2022/03/10 08:06:27;;;;;;;13.22;6.83;;;;;;;-6.95;100.00;101623.08;1769958;77;21047;-81
2022/03/10 08:08:54;;;;;;;14.35;6.60;;;;;;;-6.90;100.00;101626.52;1773777;79;21068;-82
2022/03/10 08:11:21;;;;;;;13.80;7.50;;;;;;;-6.84;100.00;101631.66;1773955;79;21586;-84
2022/03/10 08:13:49;;;;;;;17.98;6.20;;;;;;;-6.85;100.00;101628.72;1773180;79;21455;-83
2022/03/10 08:16:16;;;;;;;11.28;6.58;;;;;;;-6.93;100.00;101627.33;1774394;79;21483;-81
2022/03/10 08:18:44;;;;;;;12.55;5.85;;;;;;;-7.03;100.00;101637.76;1772853;79;21025;-82
2022/03/10 08:21:12;;;;;;;12.05;7.10;;;;;;;-7.15;100.00;101627.44;1774688;79;22274;-85
2022/03/10 08:23:40;;;;;;;10.85;6.00;;;;;;;-7.15;100.00;101627.05;1771082;79;21030;-81
2022/03/10 08:26:08;;;;;;;11.53;6.40;;;;;;;-7.03;100.00;101616.63;1769303;79;21120;-82
2022/03/10 08:28:36;;;;;;;10.70;6.00;;;;;;;-6.86;100.00;101616.87;1773560;79;21507;-81
2022/03/10 08:31:04;;;;;;;11.90;6.42;;;;;;;-6.75;100.00;101626.71;1732853;79;21154;-84
2022/03/10 08:33:33;;;;;;;9.85;5.03;;;;;;;-6.71;100.00;101622.53;1773355;79;21005;-81
2022/03/10 08:36:00;;;;;;;12.95;7.70;;;;;;;-6.63;100.00;101615.05;1765071;79;21049;-81
2022/03/10 08:38:30;;;;;;;10.90;5.67;;;;;;;-6.51;100.00;101627.84;1762547;79;21049;-81
2022/03/10 08:40:57;;;;;;;6.20;3.45;;;;;;;-6.46;100.00;101626.23;1772979;79;21041;-82
2022/03/10 08:43:28;;;;;;;12.80;6.37;;;;;;;-6.48;100.00;101625.76;1774942;79;21575;-81
2022/03/10 08:45:53;;;;;;;9.95;5.70;;;;;;;-6.50;100.00;101623.22;1768580;80;21604;-81
2022/03/10 08:48:20;;;;;;;9.65;5.78;;;;;;;-6.55;100.00;101627.39;1772469;79;21021;-81
2022/03/10 08:50:47;;;;;;;8.78;4.25;;;;;;;-6.62;100.00;101618.85;1775733;79;21042;-81
2022/03/10 08:53:14;;;;;;;13.25;7.03;;;;;;;-6.70;100.00;101636.52;1774127;79;21103;-81
2022/03/10 08:55:41;;;;;;;12.03;6.75;;;;;;;-6.66;100.00;101619.66;1771821;79;21064;-81
2022/03/10 08:58:08;;;;;;;13.05;6.78;;;;;;;-6.55;100.00;101619.78;1766474;79;21854;-82
2022/03/10 09:00:35;;;;;;;11.60;6.20;;;;;;;-6.50;100.00;101635.89;1757851;79;21013;-81
2022/03/10 09:03:02;;;;;;;14.63;7.80;;;;;;;-6.59;100.00;101623.10;1766297;79;21622;-85
2022/03/10 09:05:30;;;;;;;7.67;4.55;;;;;;;-6.59;100.00;101616.37;1761012;80;21085;-85
2022/03/10 09:07:57;;;;;;;10.20;6.60;;;;;;;-6.51;100.00;101619.84;1744408;80;21021;-84
2022/03/10 09:10:24;;;;;;;11.40;6.30;;;;;;;-6.51;100.00;101621.11;1745655;80;21545;-85
2022/03/10 09:12:52;;;;;;;8.60;4.65;;;;;;;-6.49;100.00;101617.32;1760530;79;21531;-83
2022/03/10 09:15:21;;;;;;;16.17;7.35;;;;;;;-6.38;100.00;101606.90;1745668;80;21056;-82
2022/03/10 09:17:50;;;;;;;11.15;6.60;;;;;;;-6.28;100.00;101618.38;1747651;80;21088;-81
2022/03/10 09:20:17;;;;;;;12.28;7.15;;;;;;;-6.18;100.00;101626.52;1754302;79;21006;-81
2022/03/10 09:22:45;;;;;;;10.50;5.37;;;;;;;-6.17;100.00;101617.25;1737106;79;21228;-85
2022/03/10 09:25:12;;;;;;;14.60;7.83;;;;;;;-6.18;100.00;101617.65;1734185;81;21033;-81
2022/03/10 09:27:41;;;;;;;16.00;6.58;;;;;;;-6.18;100.00;101620.19;1753475;81;20982;-81
2022/03/10 09:30:31;;;;;;;10.28;5.65;;;;;;;-6.26;100.00;101617.98;1768860;79;21488;-80
2022/03/10 09:45:23;;;;;;;9.28;5.15;;;;;;;-6.14;100.00;101619.40;1689435;83;21108;-80
2022/03/10 09:47:50;;;;;;;11.80;6.33;;;;;;;-5.91;100.00;101607.31;1710630;82;21098;-81
2022/03/10 09:50:19;;;;;;;11.22;6.28;;;;;;;-5.83;100.00;101596.82;1702193;82;21127;-80
2022/03/10 10:01:35;;;;;;;11.22;6.22;;;;;;;-5.68;100.00;101608.77;1716195;82;21024;-81
2022/03/10 10:33:57;;;;;;;10.53;4.72;;;;;;;-5.49;100.00;101584.41;1682782;83;21560;-82
2022/03/10 10:36:28;;;;;;;9.58;4.90;;;;;;;-5.67;100.00;101573.67;1694563;84;22251;-80
2022/03/10 10:43:55;;;;;;;13.93;6.20;;;;;;;-5.86;100.00;101576.48;1689580;83;20187;-81
2022/03/10 10:46:40;;;;;;;9.70;4.78;;;;;;;-5.76;100.00;101570.66;1689766;84;21077;-80
2022/03/10 10:53:39;;;;;;;8.50;4.97;;;;;;;-5.64;100.00;101566.09;1699887;82;21558;-80
2022/03/10 11:55:06;;;;;;;10.75;4.83;;;;;;;-5.52;100.00;101562.80;1713508;83;21607;-81
2022/03/10 12:06:04;;;;;;;12.00;6.28;;;;;;;-5.71;100.00;101589.73;1683035;83;21083;-79
2022/03/10 12:08:40;;;;;;;10.98;6.33;;;;;;;-5.85;100.00;101573.12;1660289;85;21774;-80
2022/03/10 12:11:19;;;;;;;12.13;7.37;;;;;;;-5.94;100.00;101563.75;1660331;86;21055;-79
2022/03/10 12:14:31;;;;;;;17.80;9.53;;;;;;;-5.94;100.00;101579.37;1658900;84;21023;-82
2022/03/10 12:21:28;;;;;;;11.22;6.42;;;;;;;-5.81;100.00;101562.57;1683845;83;21079;-79
2022/03/10 12:32:09;;;;;;;18.45;8.48;;;;;;;-5.70;100.00;101568.59;1687222;83;21098;-80
2022/03/10 12:34:38;;;;;;;18.92;9.28;;;;;;;-5.64;100.00;101567.77;1686852;83;21091;-81
2022/03/10 12:37:11;;;;;;;19.62;9.98;;;;;;;-5.62;100.00;101568.23;1669364;83;21118;-80
2022/03/10 12:39:38;;;;;;;17.20;8.80;;;;;;;-5.66;100.00;101570.30;1652225;85;21447;-80
2022/03/10 12:42:06;;;;;;;16.15;7.72;;;;;;;-5.73;100.00;101572.36;1654032;85;21054;-79
2022/03/10 12:44:34;;;;;;;16.70;7.85;;;;;;;-5.80;100.00;101566.38;1660593;85;21078;-81
2022/03/10 12:55:35;;;;;;;15.40;6.97;;;;;;;-6.06;100.00;101573.81;1686539;82;21107;-79
2022/03/10 13:01:40;;;;;;;12.65;6.33;;;;;;;-6.06;100.00;101571.27;1635732;84;21083;-81
2022/03/10 13:24:49;;;;;;;13.53;6.05;;;;;;;-6.29;100.00;101585.02;1657370;85;21177;-80
2022/03/10 13:31:42;;;;;;;10.32;5.45;;;;;;;-6.41;100.00;101590.38;1684857;83;21042;-80
2022/03/10 13:54:20;;;;;;;10.70;5.17;;;;;;;-6.98;100.00;101615.88;1722201;82;21100;-80
2022/03/10 13:56:53;;;;;;;9.68;4.70;;;;;;;-6.92;100.00;101619.30;1701327;82;21812;-80
2022/03/10 13:59:20;;;;;;;12.73;6.90;;;;;;;-6.89;100.00;101619.36;1698821;83;21081;-81
2022/03/10 14:01:49;;;;;;;14.68;7.08;;;;;;;-6.90;100.00;101611.32;1658767;83;38317;-80
2022/03/10 14:04:20;;;;;;;14.75;7.75;;;;;;;-6.94;100.00;101614.23;1689101;83;21200;-80
2022/03/10 14:06:52;;;;;;;11.95;6.50;;;;;;;-7.00;100.00;101628.08;1688750;83;21604;-81
2022/03/10 14:09:25;;;;;;;10.30;6.03;;;;;;;-7.10;100.00;101623.31;1688765;83;21595;-83
2022/03/10 14:11:54;;;;;;;14.33;7.75;;;;;;;-7.18;100.00;101631.21;1688751;83;21058;-80
2022/03/10 14:14:33;;;;;;;14.63;7.47;;;;;;;-7.21;100.00;101623.56;1688642;83;21038;-80
2022/03/10 14:17:00;;;;;;;15.93;7.58;;;;;;;-7.22;100.00;101626.52;1693175;83;21265;-86
2022/03/10 14:19:31;;;;;;;10.72;6.45;;;;;;;-7.26;100.00;101628.55;1703341;82;21720;-84
2022/03/10 14:22:00;;;;;;;13.28;6.60;;;;;;;-7.31;100.00;101625.11;1689722;83;21065;-83
2022/03/10 14:24:32;;;;;;;7.95;4.90;;;;;;;-7.37;100.00;101629.66;1713853;82;21109;-83
2022/03/10 14:27:12;;;;;;;12.58;7.05;;;;;;;-7.45;100.00;101631.22;1662910;83;21058;-81
2022/03/10 14:29:42;;;;;;;11.80;6.30;;;;;;;-7.51;100.00;101631.13;1648259;84;21868;-81
2022/03/10 14:32:12;;;;;;;16.93;8.73;;;;;;;-7.56;100.00;101633.59;1694760;83;21532;-83
2022/03/10 14:34:39;;;;;;;10.60;6.35;;;;;;;-7.63;100.00;101638.95;1694689;83;21115;-85
2022/03/10 14:37:07;;;;;;;11.20;5.78;;;;;;;-7.67;100.00;101638.87;1663079;84;21047;-81
2022/03/10 14:39:38;;;;;;;11.38;6.53;;;;;;;-7.73;100.00;101654.79;1694993;83;21014;-81
2022/03/10 14:42:06;;;;;;;15.35;8.15;;;;;;;-7.80;100.00;101661.44;1686879;83;21904;-83